sensor_id;sensor_type;location;lat;lon;timestamp;P1;durP1;ratioP1;P2;durP2;ratioP2
10452;SDS011;5274;51.992;8.518;2023-08-17T00:01:40;40.83;;;38.15;;
10452;SDS011;5274;51.992;8.518;2023-08-17T00:04:06;39.03;;;36.70;;
10452;SDS011;5274;51.992;8.518;2023-08-17T00:06:32;40.55;;;38.33;;
10452;SDS011;5274;51.992;8.518;2023-08-17T00:08:58;39.92;;;37.63;;
10452;SDS011;5274;51.992;8.518;2023-08-17T00:11:24;39.05;;;36.60;;
10452;SDS011;5274;51.992;8.518;2023-08-17T00:13:50;40.95;;;38.42;;
10452;SDS011;5274;51.992;8.518;2023-08-17T00:16:16;41.47;;;38.75;;
10452;SDS011;5274;51.992;8.518;2023-08-17T00:18:42;38.88;;;36.70;;
10452;SDS011;5274;51.992;8.518;2023-08-17T00:21:08;38.70;;;36.42;;
10452;SDS011;5274;51.992;8.518;2023-08-17T00:23:34;38.78;;;36.67;;
10452;SDS011;5274;51.992;8.518;2023-08-17T00:26:00;37.88;;;35.78;;
10452;SDS011;5274;51.992;8.518;2023-08-17T00:28:26;38.53;;;36.30;;
10452;SDS011;5274;51.992;8.518;2023-08-17T00:30:52;39.00;;;36.80;;
10452;SDS011;5274;51.992;8.518;2023-08-17T00:33:18;38.60;;;36.38;;
10452;SDS011;5274;51.992;8.518;2023-08-17T00:35:44;39.95;;;37.40;;
10452;SDS011;5274;51.992;8.518;2023-08-17T00:38:10;40.13;;;37.83;;
10452;SDS011;5274;51.992;8.518;2023-08-17T00:40:36;39.88;;;37.47;;
10452;SDS011;5274;51.992;8.518;2023-08-17T00:43:02;39.65;;;37.08;;
10452;SDS011;5274;51.992;8.518;2023-08-17T00:45:28;40.95;;;38.65;;
10452;SDS011;5274;51.992;8.518;2023-08-17T00:47:55;40.60;;;38.05;;
10452;SDS011;5274;51.992;8.518;2023-08-17T00:50:22;40.22;;;37.95;;
10452;SDS011;5274;51.992;8.518;2023-08-17T00:52:48;39.88;;;37.50;;
10452;SDS011;5274;51.992;8.518;2023-08-17T00:55:14;41.63;;;38.80;;
10452;SDS011;5274;51.992;8.518;2023-08-17T00:57:40;40.35;;;37.85;;
10452;SDS011;5274;51.992;8.518;2023-08-17T01:00:07;37.65;;;35.55;;
10452;SDS011;5274;51.992;8.518;2023-08-17T01:02:34;38.67;;;35.92;;
10452;SDS011;5274;51.992;8.518;2023-08-17T01:05:00;39.78;;;37.33;;
10452;SDS011;5274;51.992;8.518;2023-08-17T01:07:26;39.10;;;36.67;;
10452;SDS011;5274;51.992;8.518;2023-08-17T01:09:52;39.30;;;36.60;;
10452;SDS011;5274;51.992;8.518;2023-08-17T01:17:26;39.75;;;37.33;;
10452;SDS011;5274;51.992;8.518;2023-08-17T01:19:53;39.67;;;37.25;;
10452;SDS011;5274;51.992;8.518;2023-08-17T01:22:20;39.92;;;37.53;;
10452;SDS011;5274;51.992;8.518;2023-08-17T01:24:47;43.03;;;40.38;;
10452;SDS011;5274;51.992;8.518;2023-08-17T01:27:13;42.13;;;39.58;;
10452;SDS011;5274;51.992;8.518;2023-08-17T01:29:39;41.88;;;38.97;;
10452;SDS011;5274;51.992;8.518;2023-08-17T01:32:12;42.47;;;39.25;;
10452;SDS011;5274;51.992;8.518;2023-08-17T01:34:44;39.92;;;37.47;;
10452;SDS011;5274;51.992;8.518;2023-08-17T01:37:13;41.55;;;38.53;;
10452;SDS011;5274;51.992;8.518;2023-08-17T01:39:44;40.60;;;37.90;;
10452;SDS011;5274;51.992;8.518;2023-08-17T01:42:10;41.42;;;38.90;;
10452;SDS011;5274;51.992;8.518;2023-08-17T01:44:38;41.72;;;38.75;;
10452;SDS011;5274;51.992;8.518;2023-08-17T01:47:04;40.80;;;38.30;;
10452;SDS011;5274;51.992;8.518;2023-08-17T01:49:30;39.85;;;37.65;;
10452;SDS011;5274;51.992;8.518;2023-08-17T01:51:56;41.05;;;38.55;;
10452;SDS011;5274;51.992;8.518;2023-08-17T01:54:22;40.53;;;38.03;;
10452;SDS011;5274;51.992;8.518;2023-08-17T01:56:48;40.15;;;37.50;;
10452;SDS011;5274;51.992;8.518;2023-08-17T01:59:14;43.15;;;40.45;;
10452;SDS011;5274;51.992;8.518;2023-08-17T02:01:40;42.58;;;39.92;;
10452;SDS011;5274;51.992;8.518;2023-08-17T02:04:06;42.67;;;40.03;;
10452;SDS011;5274;51.992;8.518;2023-08-17T02:06:32;44.63;;;41.55;;
10452;SDS011;5274;51.992;8.518;2023-08-17T02:08:58;43.47;;;40.80;;
10452;SDS011;5274;51.992;8.518;2023-08-17T02:11:24;43.60;;;40.72;;
10452;SDS011;5274;51.992;8.518;2023-08-17T02:13:50;40.63;;;38.25;;
10452;SDS011;5274;51.992;8.518;2023-08-17T02:16:16;41.22;;;38.35;;
10452;SDS011;5274;51.992;8.518;2023-08-17T02:18:42;40.30;;;37.75;;
10452;SDS011;5274;51.992;8.518;2023-08-17T02:21:08;41.35;;;38.78;;
10452;SDS011;5274;51.992;8.518;2023-08-17T02:23:34;43.20;;;40.03;;
10452;SDS011;5274;51.992;8.518;2023-08-17T02:26:00;38.72;;;36.53;;
10452;SDS011;5274;51.992;8.518;2023-08-17T02:28:26;41.17;;;38.45;;
10452;SDS011;5274;51.992;8.518;2023-08-17T02:30:55;39.88;;;37.47;;
10452;SDS011;5274;51.992;8.518;2023-08-17T02:33:21;40.90;;;38.08;;
10452;SDS011;5274;51.992;8.518;2023-08-17T02:35:49;41.47;;;38.88;;
10452;SDS011;5274;51.992;8.518;2023-08-17T02:38:15;42.22;;;39.63;;
10452;SDS011;5274;51.992;8.518;2023-08-17T02:40:41;43.03;;;39.85;;
10452;SDS011;5274;51.992;8.518;2023-08-17T02:43:06;43.53;;;40.85;;
10452;SDS011;5274;51.992;8.518;2023-08-17T02:45:33;42.90;;;40.30;;
10452;SDS011;5274;51.992;8.518;2023-08-17T02:47:59;45.15;;;42.15;;
10452;SDS011;5274;51.992;8.518;2023-08-17T02:50:25;44.60;;;42.00;;
10452;SDS011;5274;51.992;8.518;2023-08-17T02:52:51;44.25;;;41.30;;
10452;SDS011;5274;51.992;8.518;2023-08-17T02:55:17;42.45;;;39.50;;
10452;SDS011;5274;51.992;8.518;2023-08-17T02:57:43;43.83;;;41.05;;
10452;SDS011;5274;51.992;8.518;2023-08-17T03:00:09;44.10;;;41.28;;
10452;SDS011;5274;51.992;8.518;2023-08-17T03:02:35;41.83;;;39.38;;
10452;SDS011;5274;51.992;8.518;2023-08-17T03:05:01;41.83;;;39.28;;
10452;SDS011;5274;51.992;8.518;2023-08-17T03:07:28;42.80;;;39.97;;
10452;SDS011;5274;51.992;8.518;2023-08-17T03:09:54;40.67;;;38.15;;
10452;SDS011;5274;51.992;8.518;2023-08-17T03:12:19;41.90;;;39.20;;
10452;SDS011;5274;51.992;8.518;2023-08-17T03:14:45;42.13;;;39.45;;
10452;SDS011;5274;51.992;8.518;2023-08-17T03:17:11;42.63;;;39.92;;
10452;SDS011;5274;51.992;8.518;2023-08-17T03:19:37;42.53;;;40.00;;
10452;SDS011;5274;51.992;8.518;2023-08-17T03:22:03;44.72;;;41.45;;
10452;SDS011;5274;51.992;8.518;2023-08-17T03:24:29;44.15;;;41.45;;
10452;SDS011;5274;51.992;8.518;2023-08-17T03:26:55;45.85;;;42.75;;
10452;SDS011;5274;51.992;8.518;2023-08-17T03:29:21;46.10;;;43.25;;
10452;SDS011;5274;51.992;8.518;2023-08-17T03:31:47;44.55;;;41.92;;
10452;SDS011;5274;51.992;8.518;2023-08-17T03:34:14;43.22;;;40.75;;
10452;SDS011;5274;51.992;8.518;2023-08-17T03:36:40;43.83;;;41.22;;
10452;SDS011;5274;51.992;8.518;2023-08-17T03:39:06;43.45;;;40.40;;
10452;SDS011;5274;51.992;8.518;2023-08-17T03:41:32;43.42;;;40.90;;
10452;SDS011;5274;51.992;8.518;2023-08-17T03:43:58;43.50;;;40.83;;
10452;SDS011;5274;51.992;8.518;2023-08-17T03:46:24;43.38;;;40.78;;
10452;SDS011;5274;51.992;8.518;2023-08-17T03:48:50;45.38;;;42.38;;
10452;SDS011;5274;51.992;8.518;2023-08-17T03:51:16;44.72;;;41.78;;
10452;SDS011;5274;51.992;8.518;2023-08-17T03:53:42;45.88;;;42.95;;
10452;SDS011;5274;51.992;8.518;2023-08-17T03:56:08;43.85;;;41.00;;
10452;SDS011;5274;51.992;8.518;2023-08-17T03:58:34;45.90;;;42.90;;
10452;SDS011;5274;51.992;8.518;2023-08-17T04:01:00;47.00;;;43.75;;
10452;SDS011;5274;51.992;8.518;2023-08-17T04:03:27;46.38;;;43.33;;
10452;SDS011;5274;51.992;8.518;2023-08-17T04:05:52;48.53;;;45.28;;
10452;SDS011;5274;51.992;8.518;2023-08-17T04:08:18;45.40;;;42.80;;
10452;SDS011;5274;51.992;8.518;2023-08-17T04:10:44;43.97;;;40.70;;
10452;SDS011;5274;51.992;8.518;2023-08-17T04:13:10;44.90;;;42.08;;
10452;SDS011;5274;51.992;8.518;2023-08-17T04:15:36;47.08;;;44.03;;
10452;SDS011;5274;51.992;8.518;2023-08-17T04:18:02;46.30;;;43.58;;
10452;SDS011;5274;51.992;8.518;2023-08-17T04:20:28;45.28;;;42.38;;
10452;SDS011;5274;51.992;8.518;2023-08-17T04:22:54;46.13;;;43.20;;
10452;SDS011;5274;51.992;8.518;2023-08-17T04:25:20;44.90;;;42.03;;
10452;SDS011;5274;51.992;8.518;2023-08-17T04:27:46;45.08;;;42.15;;
10452;SDS011;5274;51.992;8.518;2023-08-17T04:30:12;44.60;;;42.00;;
10452;SDS011;5274;51.992;8.518;2023-08-17T04:32:38;46.65;;;43.53;;
10452;SDS011;5274;51.992;8.518;2023-08-17T04:35:04;41.78;;;38.97;;
10452;SDS011;5274;51.992;8.518;2023-08-17T04:37:30;46.03;;;43.05;;
10452;SDS011;5274;51.992;8.518;2023-08-17T04:39:56;45.05;;;42.15;;
10452;SDS011;5274;51.992;8.518;2023-08-17T04:42:22;52.55;;;48.65;;
10452;SDS011;5274;51.992;8.518;2023-08-17T04:44:49;52.75;;;49.35;;
10452;SDS011;5274;51.992;8.518;2023-08-17T04:47:15;53.15;;;48.70;;
10452;SDS011;5274;51.992;8.518;2023-08-17T04:49:41;48.15;;;44.45;;
10452;SDS011;5274;51.992;8.518;2023-08-17T04:52:07;48.10;;;44.60;;
10452;SDS011;5274;51.992;8.518;2023-08-17T04:54:33;51.17;;;47.50;;
10452;SDS011;5274;51.992;8.518;2023-08-17T04:57:00;49.42;;;46.03;;
10452;SDS011;5274;51.992;8.518;2023-08-17T04:59:26;49.15;;;46.05;;
10452;SDS011;5274;51.992;8.518;2023-08-17T05:01:52;51.17;;;47.25;;
10452;SDS011;5274;51.992;8.518;2023-08-17T05:04:19;50.30;;;46.63;;
10452;SDS011;5274;51.992;8.518;2023-08-17T05:06:45;47.80;;;44.60;;
10452;SDS011;5274;51.992;8.518;2023-08-17T05:09:11;48.78;;;45.67;;
10452;SDS011;5274;51.992;8.518;2023-08-17T05:11:37;49.10;;;45.85;;
10452;SDS011;5274;51.992;8.518;2023-08-17T05:14:03;46.95;;;43.10;;
10452;SDS011;5274;51.992;8.518;2023-08-17T05:16:29;49.72;;;46.40;;
10452;SDS011;5274;51.992;8.518;2023-08-17T05:18:56;48.80;;;44.90;;
10452;SDS011;5274;51.992;8.518;2023-08-17T05:21:23;49.17;;;45.58;;
10452;SDS011;5274;51.992;8.518;2023-08-17T05:23:49;50.00;;;46.60;;
10452;SDS011;5274;51.992;8.518;2023-08-17T05:26:15;48.85;;;45.80;;
10452;SDS011;5274;51.992;8.518;2023-08-17T05:28:41;49.35;;;46.08;;
10452;SDS011;5274;51.992;8.518;2023-08-17T05:31:08;49.03;;;45.63;;
10452;SDS011;5274;51.992;8.518;2023-08-17T05:33:34;49.40;;;45.70;;
10452;SDS011;5274;51.992;8.518;2023-08-17T05:36:00;48.70;;;45.38;;
10452;SDS011;5274;51.992;8.518;2023-08-17T05:38:26;48.15;;;44.33;;
10452;SDS011;5274;51.992;8.518;2023-08-17T05:40:55;49.85;;;46.45;;
10452;SDS011;5274;51.992;8.518;2023-08-17T05:43:21;50.85;;;47.05;;
10452;SDS011;5274;51.992;8.518;2023-08-17T05:45:47;49.08;;;45.72;;
10452;SDS011;5274;51.992;8.518;2023-08-17T05:48:13;49.42;;;46.22;;
10452;SDS011;5274;51.992;8.518;2023-08-17T05:50:42;49.47;;;45.67;;
10452;SDS011;5274;51.992;8.518;2023-08-17T05:53:08;50.72;;;47.08;;
10452;SDS011;5274;51.992;8.518;2023-08-17T05:55:34;48.53;;;45.30;;
10452;SDS011;5274;51.992;8.518;2023-08-17T05:58:01;48.75;;;45.30;;
10452;SDS011;5274;51.992;8.518;2023-08-17T06:00:28;50.28;;;46.83;;
10452;SDS011;5274;51.992;8.518;2023-08-17T06:02:54;50.58;;;46.70;;
10452;SDS011;5274;51.992;8.518;2023-08-17T06:05:26;50.25;;;46.78;;
10452;SDS011;5274;51.992;8.518;2023-08-17T06:07:52;50.00;;;46.53;;
10452;SDS011;5274;51.992;8.518;2023-08-17T06:10:18;47.45;;;44.13;;
10452;SDS011;5274;51.992;8.518;2023-08-17T06:12:45;50.60;;;47.20;;
10452;SDS011;5274;51.992;8.518;2023-08-17T06:15:11;46.97;;;43.78;;
10452;SDS011;5274;51.992;8.518;2023-08-17T06:17:37;51.47;;;47.35;;
10452;SDS011;5274;51.992;8.518;2023-08-17T06:20:03;48.50;;;45.00;;
10452;SDS011;5274;51.992;8.518;2023-08-17T06:22:30;51.20;;;47.78;;
10452;SDS011;5274;51.992;8.518;2023-08-17T06:24:56;51.00;;;47.30;;
10452;SDS011;5274;51.992;8.518;2023-08-17T06:27:21;51.50;;;47.58;;
10452;SDS011;5274;51.992;8.518;2023-08-17T06:29:47;50.10;;;46.70;;
10452;SDS011;5274;51.992;8.518;2023-08-17T06:32:14;47.25;;;43.67;;
10452;SDS011;5274;51.992;8.518;2023-08-17T06:34:39;49.60;;;46.20;;
10452;SDS011;5274;51.992;8.518;2023-08-17T06:37:05;50.47;;;46.83;;
10452;SDS011;5274;51.992;8.518;2023-08-17T06:39:31;48.97;;;45.55;;
10452;SDS011;5274;51.992;8.518;2023-08-17T06:41:57;50.63;;;47.22;;
10452;SDS011;5274;51.992;8.518;2023-08-17T06:44:23;49.05;;;45.42;;
10452;SDS011;5274;51.992;8.518;2023-08-17T06:46:49;51.80;;;47.83;;
10452;SDS011;5274;51.992;8.518;2023-08-17T06:49:15;50.65;;;47.28;;
10452;SDS011;5274;51.992;8.518;2023-08-17T06:51:41;50.33;;;46.72;;
10452;SDS011;5274;51.992;8.518;2023-08-17T06:54:07;50.45;;;46.60;;
10452;SDS011;5274;51.992;8.518;2023-08-17T06:56:34;51.22;;;47.55;;
10452;SDS011;5274;51.992;8.518;2023-08-17T06:59:00;50.03;;;46.75;;
10452;SDS011;5274;51.992;8.518;2023-08-17T07:01:27;47.63;;;43.60;;
10452;SDS011;5274;51.992;8.518;2023-08-17T07:03:53;48.88;;;45.50;;
10452;SDS011;5274;51.992;8.518;2023-08-17T07:06:19;47.80;;;44.65;;
10452;SDS011;5274;51.992;8.518;2023-08-17T07:08:45;49.78;;;46.15;;
10452;SDS011;5274;51.992;8.518;2023-08-17T07:11:11;49.00;;;45.30;;
10452;SDS011;5274;51.992;8.518;2023-08-17T07:13:37;47.58;;;44.20;;
10452;SDS011;5274;51.992;8.518;2023-08-17T07:16:03;48.88;;;44.95;;
10452;SDS011;5274;51.992;8.518;2023-08-17T07:18:29;50.00;;;46.38;;
10452;SDS011;5274;51.992;8.518;2023-08-17T07:20:55;50.45;;;46.60;;
10452;SDS011;5274;51.992;8.518;2023-08-17T07:23:21;49.33;;;45.38;;
10452;SDS011;5274;51.992;8.518;2023-08-17T07:25:47;49.38;;;45.63;;
10452;SDS011;5274;51.992;8.518;2023-08-17T07:28:14;50.92;;;46.17;;
10452;SDS011;5274;51.992;8.518;2023-08-17T07:30:40;50.45;;;46.38;;
10452;SDS011;5274;51.992;8.518;2023-08-17T07:33:06;49.90;;;46.47;;
10452;SDS011;5274;51.992;8.518;2023-08-17T07:35:32;50.38;;;46.50;;
10452;SDS011;5274;51.992;8.518;2023-08-17T07:37:58;51.35;;;47.38;;
10452;SDS011;5274;51.992;8.518;2023-08-17T07:40:24;51.88;;;47.65;;
10452;SDS011;5274;51.992;8.518;2023-08-17T07:42:50;51.50;;;47.22;;
10452;SDS011;5274;51.992;8.518;2023-08-17T07:45:16;54.13;;;49.67;;
10452;SDS011;5274;51.992;8.518;2023-08-17T07:47:42;53.22;;;48.85;;
10452;SDS011;5274;51.992;8.518;2023-08-17T07:50:08;54.67;;;50.53;;
10452;SDS011;5274;51.992;8.518;2023-08-17T07:52:34;53.92;;;49.72;;
10452;SDS011;5274;51.992;8.518;2023-08-17T07:55:00;52.47;;;48.58;;
10452;SDS011;5274;51.992;8.518;2023-08-17T07:57:26;52.45;;;47.95;;
10452;SDS011;5274;51.992;8.518;2023-08-17T07:59:52;52.60;;;48.30;;
10452;SDS011;5274;51.992;8.518;2023-08-17T08:02:18;56.25;;;50.63;;
10452;SDS011;5274;51.992;8.518;2023-08-17T08:04:45;48.83;;;44.53;;
10452;SDS011;5274;51.992;8.518;2023-08-17T08:07:11;51.97;;;47.40;;
10452;SDS011;5274;51.992;8.518;2023-08-17T08:09:36;51.85;;;47.40;;
10452;SDS011;5274;51.992;8.518;2023-08-17T08:12:03;51.50;;;46.60;;
10452;SDS011;5274;51.992;8.518;2023-08-17T08:14:29;50.75;;;47.15;;
10452;SDS011;5274;51.992;8.518;2023-08-17T08:16:55;51.28;;;46.65;;
10452;SDS011;5274;51.992;8.518;2023-08-17T08:19:21;48.83;;;44.75;;
10452;SDS011;5274;51.992;8.518;2023-08-17T08:21:47;49.55;;;45.63;;
10452;SDS011;5274;51.992;8.518;2023-08-17T08:24:13;51.05;;;46.92;;
10452;SDS011;5274;51.992;8.518;2023-08-17T08:26:38;51.50;;;46.08;;
10452;SDS011;5274;51.992;8.518;2023-08-17T08:29:04;49.65;;;46.10;;
10452;SDS011;5274;51.992;8.518;2023-08-17T08:31:30;52.35;;;48.58;;
10452;SDS011;5274;51.992;8.518;2023-08-17T08:33:56;51.40;;;47.05;;
10452;SDS011;5274;51.992;8.518;2023-08-17T08:36:24;49.10;;;45.50;;
10452;SDS011;5274;51.992;8.518;2023-08-17T08:38:50;48.85;;;45.28;;
10452;SDS011;5274;51.992;8.518;2023-08-17T08:41:16;50.35;;;45.88;;
10452;SDS011;5274;51.992;8.518;2023-08-17T08:43:42;50.03;;;45.78;;
10452;SDS011;5274;51.992;8.518;2023-08-17T08:46:08;49.97;;;46.05;;
10452;SDS011;5274;51.992;8.518;2023-08-17T08:48:35;48.55;;;44.70;;
10452;SDS011;5274;51.992;8.518;2023-08-17T08:51:01;49.78;;;46.08;;
10452;SDS011;5274;51.992;8.518;2023-08-17T08:53:37;52.40;;;46.45;;
10452;SDS011;5274;51.992;8.518;2023-08-17T08:56:03;48.53;;;44.83;;
10452;SDS011;5274;51.992;8.518;2023-08-17T08:58:29;49.20;;;45.55;;
10452;SDS011;5274;51.992;8.518;2023-08-17T09:00:57;50.50;;;46.30;;
10452;SDS011;5274;51.992;8.518;2023-08-17T09:03:23;50.15;;;46.35;;
10452;SDS011;5274;51.992;8.518;2023-08-17T09:05:50;49.47;;;45.90;;
10452;SDS011;5274;51.992;8.518;2023-08-17T09:08:21;51.45;;;47.55;;
10452;SDS011;5274;51.992;8.518;2023-08-17T09:10:47;48.92;;;45.63;;
10452;SDS011;5274;51.992;8.518;2023-08-17T09:13:13;52.38;;;48.50;;
10452;SDS011;5274;51.992;8.518;2023-08-17T09:15:39;49.58;;;45.83;;
10452;SDS011;5274;51.992;8.518;2023-08-17T09:18:05;48.72;;;45.22;;
10452;SDS011;5274;51.992;8.518;2023-08-17T09:20:36;48.38;;;44.83;;
10452;SDS011;5274;51.992;8.518;2023-08-17T09:23:09;48.22;;;44.72;;
10452;SDS011;5274;51.992;8.518;2023-08-17T09:25:37;48.22;;;44.65;;
10452;SDS011;5274;51.992;8.518;2023-08-17T09:28:07;46.65;;;43.17;;
10452;SDS011;5274;51.992;8.518;2023-08-17T09:30:36;47.08;;;43.80;;
10452;SDS011;5274;51.992;8.518;2023-08-17T09:33:14;47.88;;;44.47;;
10452;SDS011;5274;51.992;8.518;2023-08-17T09:35:41;46.88;;;43.72;;
10452;SDS011;5274;51.992;8.518;2023-08-17T09:38:07;47.80;;;44.53;;
10452;SDS011;5274;51.992;8.518;2023-08-17T09:40:33;49.28;;;45.95;;
10452;SDS011;5274;51.992;8.518;2023-08-17T09:42:59;50.80;;;47.20;;
10452;SDS011;5274;51.992;8.518;2023-08-17T09:45:25;50.47;;;46.88;;
10452;SDS011;5274;51.992;8.518;2023-08-17T09:47:53;50.75;;;47.00;;
10452;SDS011;5274;51.992;8.518;2023-08-17T09:50:22;50.42;;;46.58;;
10452;SDS011;5274;51.992;8.518;2023-08-17T09:52:52;49.72;;;46.35;;
10452;SDS011;5274;51.992;8.518;2023-08-17T09:55:18;49.30;;;45.80;;
10452;SDS011;5274;51.992;8.518;2023-08-17T09:57:45;47.67;;;44.38;;
10452;SDS011;5274;51.992;8.518;2023-08-17T10:00:13;50.63;;;46.97;;
10452;SDS011;5274;51.992;8.518;2023-08-17T10:02:39;49.90;;;46.50;;
10452;SDS011;5274;51.992;8.518;2023-08-17T10:05:05;50.78;;;46.85;;
10452;SDS011;5274;51.992;8.518;2023-08-17T10:07:31;52.05;;;48.45;;
10452;SDS011;5274;51.992;8.518;2023-08-17T10:10:08;54.28;;;50.38;;
10452;SDS011;5274;51.992;8.518;2023-08-17T10:12:40;51.90;;;48.35;;
10452;SDS011;5274;51.992;8.518;2023-08-17T10:15:08;53.72;;;49.80;;
10452;SDS011;5274;51.992;8.518;2023-08-17T10:17:37;52.60;;;48.80;;
10452;SDS011;5274;51.992;8.518;2023-08-17T10:20:05;53.03;;;49.20;;
10452;SDS011;5274;51.992;8.518;2023-08-17T10:25:09;54.08;;;50.25;;
10452;SDS011;5274;51.992;8.518;2023-08-17T10:27:38;55.22;;;51.17;;
10452;SDS011;5274;51.992;8.518;2023-08-17T10:30:04;56.33;;;52.03;;
10452;SDS011;5274;51.992;8.518;2023-08-17T10:32:31;55.60;;;51.50;;
10452;SDS011;5274;51.992;8.518;2023-08-17T10:34:57;53.15;;;49.22;;
10452;SDS011;5274;51.992;8.518;2023-08-17T10:37:24;54.95;;;51.03;;
10452;SDS011;5274;51.992;8.518;2023-08-17T10:39:50;54.75;;;50.95;;
10452;SDS011;5274;51.992;8.518;2023-08-17T10:42:33;52.95;;;49.25;;
10452;SDS011;5274;51.992;8.518;2023-08-17T10:45:00;54.58;;;50.88;;
10452;SDS011;5274;51.992;8.518;2023-08-17T10:47:31;55.22;;;50.97;;
10452;SDS011;5274;51.992;8.518;2023-08-17T10:50:19;54.95;;;51.00;;
10452;SDS011;5274;51.992;8.518;2023-08-17T10:52:43;55.20;;;51.10;;
10452;SDS011;5274;51.992;8.518;2023-08-17T10:55:09;54.17;;;50.30;;
10452;SDS011;5274;51.992;8.518;2023-08-17T11:02:51;55.88;;;51.97;;
10452;SDS011;5274;51.992;8.518;2023-08-17T11:08:04;53.60;;;49.97;;
10452;SDS011;5274;51.992;8.518;2023-08-17T11:10:30;53.28;;;49.47;;
10452;SDS011;5274;51.992;8.518;2023-08-17T11:12:56;52.45;;;48.53;;
10452;SDS011;5274;51.992;8.518;2023-08-17T11:18:03;51.15;;;47.72;;
10452;SDS011;5274;51.992;8.518;2023-08-17T11:20:29;50.75;;;47.15;;
10452;SDS011;5274;51.992;8.518;2023-08-17T11:22:55;50.17;;;46.67;;
10452;SDS011;5274;51.992;8.518;2023-08-17T11:25:21;50.33;;;46.92;;
10452;SDS011;5274;51.992;8.518;2023-08-17T11:27:47;49.53;;;46.03;;
10452;SDS011;5274;51.992;8.518;2023-08-17T11:30:13;49.67;;;46.13;;
10452;SDS011;5274;51.992;8.518;2023-08-17T11:32:40;48.17;;;45.03;;
10452;SDS011;5274;51.992;8.518;2023-08-17T11:35:06;45.70;;;42.60;;
10452;SDS011;5274;51.992;8.518;2023-08-17T11:37:32;46.13;;;43.03;;
10452;SDS011;5274;51.992;8.518;2023-08-17T11:39:58;48.50;;;45.25;;
10452;SDS011;5274;51.992;8.518;2023-08-17T11:42:24;45.35;;;42.25;;
10452;SDS011;5274;51.992;8.518;2023-08-17T11:44:50;51.40;;;48.10;;
10452;SDS011;5274;51.992;8.518;2023-08-17T11:47:16;52.08;;;48.67;;
10452;SDS011;5274;51.992;8.518;2023-08-17T11:49:42;52.72;;;49.33;;
10452;SDS011;5274;51.992;8.518;2023-08-17T11:52:11;50.85;;;47.45;;
10452;SDS011;5274;51.992;8.518;2023-08-17T11:54:40;49.90;;;46.70;;
10452;SDS011;5274;51.992;8.518;2023-08-17T11:57:07;51.15;;;47.72;;
10452;SDS011;5274;51.992;8.518;2023-08-17T11:59:33;50.67;;;47.38;;
10452;SDS011;5274;51.992;8.518;2023-08-17T12:01:59;48.03;;;44.85;;
10452;SDS011;5274;51.992;8.518;2023-08-17T12:04:26;49.13;;;45.95;;
10452;SDS011;5274;51.992;8.518;2023-08-17T12:06:52;49.17;;;45.75;;
10452;SDS011;5274;51.992;8.518;2023-08-17T12:09:18;51.60;;;48.17;;
10452;SDS011;5274;51.992;8.518;2023-08-17T12:11:44;50.10;;;46.60;;
10452;SDS011;5274;51.992;8.518;2023-08-17T12:14:11;50.80;;;47.13;;
10452;SDS011;5274;51.992;8.518;2023-08-17T12:16:47;53.42;;;49.63;;
10452;SDS011;5274;51.992;8.518;2023-08-17T12:19:15;54.10;;;50.42;;
10452;SDS011;5274;51.992;8.518;2023-08-17T12:21:42;53.35;;;49.50;;
10452;SDS011;5274;51.992;8.518;2023-08-17T12:24:08;50.97;;;47.28;;
10452;SDS011;5274;51.992;8.518;2023-08-17T12:26:35;48.78;;;45.55;;
10452;SDS011;5274;51.992;8.518;2023-08-17T12:29:04;49.88;;;46.10;;
10452;SDS011;5274;51.992;8.518;2023-08-17T12:31:32;51.42;;;47.63;;
10452;SDS011;5274;51.992;8.518;2023-08-17T12:33:58;51.20;;;47.28;;
10452;SDS011;5274;51.992;8.518;2023-08-17T12:36:24;52.47;;;48.88;;
10452;SDS011;5274;51.992;8.518;2023-08-17T12:38:50;50.17;;;46.45;;
10452;SDS011;5274;51.992;8.518;2023-08-17T12:41:16;49.42;;;45.67;;
10452;SDS011;5274;51.992;8.518;2023-08-17T12:43:42;50.67;;;47.15;;
10452;SDS011;5274;51.992;8.518;2023-08-17T12:46:08;47.20;;;43.88;;
10452;SDS011;5274;51.992;8.518;2023-08-17T12:48:35;49.33;;;45.92;;
10452;SDS011;5274;51.992;8.518;2023-08-17T12:51:02;49.35;;;45.88;;
10452;SDS011;5274;51.992;8.518;2023-08-17T12:53:28;51.53;;;47.97;;
10452;SDS011;5274;51.992;8.518;2023-08-17T12:55:54;51.83;;;48.10;;
10452;SDS011;5274;51.992;8.518;2023-08-17T12:58:20;51.20;;;47.42;;
10452;SDS011;5274;51.992;8.518;2023-08-17T13:00:46;49.22;;;45.25;;
10452;SDS011;5274;51.992;8.518;2023-08-17T13:03:15;47.55;;;44.40;;
10452;SDS011;5274;51.992;8.518;2023-08-17T13:05:41;47.65;;;44.35;;
10452;SDS011;5274;51.992;8.518;2023-08-17T13:08:07;48.20;;;44.92;;
10452;SDS011;5274;51.992;8.518;2023-08-17T13:10:33;47.88;;;44.55;;
10452;SDS011;5274;51.992;8.518;2023-08-17T13:12:59;46.78;;;43.78;;
10452;SDS011;5274;51.992;8.518;2023-08-17T13:15:25;50.22;;;46.92;;
10452;SDS011;5274;51.992;8.518;2023-08-17T13:17:51;44.50;;;41.63;;
10452;SDS011;5274;51.992;8.518;2023-08-17T13:20:17;45.88;;;42.92;;
10452;SDS011;5274;51.992;8.518;2023-08-17T13:22:43;46.78;;;43.88;;
10452;SDS011;5274;51.992;8.518;2023-08-17T13:25:09;46.42;;;43.53;;
10452;SDS011;5274;51.992;8.518;2023-08-17T13:27:35;44.72;;;41.90;;
10452;SDS011;5274;51.992;8.518;2023-08-17T13:30:01;41.80;;;39.30;;
10452;SDS011;5274;51.992;8.518;2023-08-17T13:32:27;42.75;;;40.08;;
10452;SDS011;5274;51.992;8.518;2023-08-17T13:34:54;42.55;;;39.95;;
10452;SDS011;5274;51.992;8.518;2023-08-17T13:37:21;44.83;;;42.05;;
10452;SDS011;5274;51.992;8.518;2023-08-17T13:39:47;46.00;;;42.92;;
10452;SDS011;5274;51.992;8.518;2023-08-17T13:42:13;49.08;;;46.08;;
10452;SDS011;5274;51.992;8.518;2023-08-17T13:44:39;47.30;;;44.38;;
10452;SDS011;5274;51.992;8.518;2023-08-17T13:47:05;46.40;;;43.55;;
10452;SDS011;5274;51.992;8.518;2023-08-17T13:49:31;41.28;;;38.72;;
10452;SDS011;5274;51.992;8.518;2023-08-17T13:51:57;44.90;;;42.20;;
10452;SDS011;5274;51.992;8.518;2023-08-17T13:54:23;48.72;;;45.72;;
10452;SDS011;5274;51.992;8.518;2023-08-17T13:56:49;43.30;;;40.70;;
10452;SDS011;5274;51.992;8.518;2023-08-17T13:59:15;45.33;;;42.33;;
10452;SDS011;5274;51.992;8.518;2023-08-17T14:01:41;47.25;;;44.13;;
10452;SDS011;5274;51.992;8.518;2023-08-17T14:04:07;46.45;;;43.78;;
10452;SDS011;5274;51.992;8.518;2023-08-17T14:06:37;43.28;;;40.58;;
10452;SDS011;5274;51.992;8.518;2023-08-17T14:09:04;45.88;;;42.97;;
10452;SDS011;5274;51.992;8.518;2023-08-17T14:11:30;47.78;;;44.70;;
10452;SDS011;5274;51.992;8.518;2023-08-17T14:13:56;49.10;;;45.92;;
10452;SDS011;5274;51.992;8.518;2023-08-17T14:16:22;49.08;;;45.90;;
10452;SDS011;5274;51.992;8.518;2023-08-17T14:18:48;47.63;;;44.63;;
10452;SDS011;5274;51.992;8.518;2023-08-17T14:21:14;48.55;;;45.38;;
10452;SDS011;5274;51.992;8.518;2023-08-17T14:23:40;48.63;;;45.33;;
10452;SDS011;5274;51.992;8.518;2023-08-17T14:26:06;48.83;;;45.45;;
10452;SDS011;5274;51.992;8.518;2023-08-17T14:28:32;47.25;;;44.15;;
10452;SDS011;5274;51.992;8.518;2023-08-17T14:30:58;44.78;;;42.08;;
10452;SDS011;5274;51.992;8.518;2023-08-17T14:33:24;46.80;;;43.85;;
10452;SDS011;5274;51.992;8.518;2023-08-17T14:35:50;47.80;;;44.70;;
10452;SDS011;5274;51.992;8.518;2023-08-17T14:38:16;46.13;;;43.33;;
10452;SDS011;5274;51.992;8.518;2023-08-17T14:40:42;48.28;;;45.05;;
10452;SDS011;5274;51.992;8.518;2023-08-17T14:43:09;46.15;;;43.42;;
10452;SDS011;5274;51.992;8.518;2023-08-17T14:45:36;48.00;;;45.00;;
10452;SDS011;5274;51.992;8.518;2023-08-17T14:48:02;46.58;;;43.83;;